»·PEaware :: N921VN S36-KORS

N921VN :: S36-KORS

FLIGHT INFORMATION

Flight Status: Arrived
Operator: Privately registered:
United States
More flights under this callsign
Pilot: Kevin M. (7)
Aircraft: BEECH AIRCRAFT BARON
(BE58)
More flights by this aircraft type
Origin: S36 Norman Grier Field
United States
Destination: KORS Orcas Island
United States
More flights between these airports :: More routes between these airports
Route: +ORTIN V187 TCM PAE V287 NUW V165 CANDL
File this flight plan on PilotEdge
Remarks: WA Alphabet Challenge!
Altitude:
(Current/Filed)
6,000ft
Speed:
(Current/Filed)
150kts
Departed: 23-Apr-20 11:12 AM
Arrived: 23-Apr-20 12:04 PM
Distance/Time
Traveled:
88nm/0:52
Distance/Time
To Go:
Arrived

Flight Plot

Page will automatically refresh every two minutes.

Flight plan parsing failed; only flown route is shown


Map Options




Map Legend


Flown Route
Filed Route
Departure Airport
Arrival Airport
Navaid (VOR, NDB)
Fix

Horizontal Profiles

Position Reports

Time Latitude Longitude Heading Altitude Ground
Speed
23-Apr-20 11:08 47.340808 -122.103297 260 475ft 0kts
23-Apr-20 11:09 47.341215 -122.103954 279 475ft 0kts
23-Apr-20 11:10 47.341215 -122.103954 279 475ft 0kts
23-Apr-20 11:11 47.329556 -122.101947 174 942ft 103kts
23-Apr-20 11:12 47.329875 -122.070846 342 1540ft 172kts
23-Apr-20 11:13 47.358342 -122.105461 223 900ft 110kts
23-Apr-20 11:14 47.335730 -122.103252 171 475ft 23kts
23-Apr-20 11:15 47.337633 -122.103390 351 475ft 13kts
23-Apr-20 11:16 47.340455 -122.104037 351 475ft 5kts
23-Apr-20 11:17 47.341191 -122.104504 170 475ft 6kts
23-Apr-20 11:18 47.311463 -122.104343 194 1309ft 149kts
23-Apr-20 11:19 47.275221 -122.120677 206 2960ft 139kts
23-Apr-20 11:20 47.238463 -122.146902 208 4241ft 154kts
23-Apr-20 11:21 47.209131 -122.187630 257 5460ft 148kts
23-Apr-20 11:22 47.197563 -122.249408 257 6010ft 173kts
23-Apr-20 11:23 47.182478 -122.319058 253 6001ft 179kts
23-Apr-20 11:24 47.167335 -122.388077 251 5997ft 176kts
23-Apr-20 11:25 47.153062 -122.456449 263 5989ft 165kts
23-Apr-20 11:26 47.192263 -122.478869 1 6001ft 189kts
23-Apr-20 11:27 47.246285 -122.471336 8 5997ft 198kts
23-Apr-20 11:28 47.300433 -122.455154 8 5996ft 198kts
23-Apr-20 11:29 47.354684 -122.439565 7 5996ft 198kts
23-Apr-20 11:30 47.408697 -122.424212 7 5996ft 198kts
23-Apr-20 11:32 47.463018 -122.408735 8 5996ft 198kts
23-Apr-20 11:33 47.517443 -122.393190 8 5990ft 199kts
23-Apr-20 11:34 47.572129 -122.377536 8 5968ft 200kts
23-Apr-20 11:35 47.626822 -122.361865 8 5945ft 200kts
23-Apr-20 11:36 47.681404 -122.346219 8 5922ft 200kts
23-Apr-20 11:37 47.735960 -122.330494 8 5926ft 200kts
23-Apr-20 11:38 47.790641 -122.314739 8 5949ft 199kts
23-Apr-20 11:39 47.845043 -122.299025 8 5986ft 199kts
23-Apr-20 11:40 47.899691 -122.283193 8 5989ft 200kts
23-Apr-20 11:41 47.944217 -122.306823 294 5988ft 184kts
23-Apr-20 11:42 47.975268 -122.361966 321 5989ft 190kts
23-Apr-20 11:43 48.016945 -122.410664 315 5990ft 189kts
23-Apr-20 11:44 48.056375 -122.462682 314 5997ft 187kts
23-Apr-20 11:45 48.094736 -122.515089 313 6003ft 186kts
23-Apr-20 11:46 48.132447 -122.566953 313 6007ft 184kts
23-Apr-20 11:47 48.171348 -122.620998 314 5280ft 206kts
23-Apr-20 11:48 48.217619 -122.675874 337 3669ft 225kts
23-Apr-20 11:49 48.272169 -122.700884 341 3797ft 191kts
23-Apr-20 11:50 48.322759 -122.718727 342 4294ft 183kts
23-Apr-20 11:50 48.364519 -122.733247 342 4558ft 188kts
23-Apr-20 11:51 48.417041 -122.750534 349 4546ft 194kts
23-Apr-20 11:53 48.478643 -122.735086 12 4529ft 200kts
23-Apr-20 11:53 48.523544 -122.724874 19 4530ft 201kts
23-Apr-20 11:54 48.576264 -122.692932 19 4518ft 203kts
23-Apr-20 11:55 48.629398 -122.661964 17 4501ft 204kts
23-Apr-20 11:56 48.685528 -122.650421 4 4495ft 203kts
23-Apr-20 11:57 48.717767 -122.697545 273 4497ft 185kts
23-Apr-20 11:58 48.723446 -122.775956 273 4495ft 186kts
23-Apr-20 11:59 48.732083 -122.868087 271 1751ft 238kts
23-Apr-20 12:00 48.742565 -122.944950 353 1918ft 165kts
23-Apr-20 12:01 48.738772 -122.907768 189 686ft 149kts
23-Apr-20 12:02 48.710437 -122.910605 179 16ft 83kts
23-Apr-20 12:03 48.705971 -122.909533 88 33ft 5kts
23-Apr-20 12:04 48.705922 -122.909493 195 34ft 0kts

Navigation Log

Ident Type
Flight plan parsing failed, navigation log unavailable